sensor_id;sensor_type;location;lat;lon;timestamp;temperature;humidity
9375;DHT22;4727;51.202;6.344;2023-07-13T00:02:07;16.60;99.90
9375;DHT22;4727;51.202;6.344;2023-07-13T00:04:33;16.60;99.90
9375;DHT22;4727;51.202;6.344;2023-07-13T00:06:58;16.60;99.90
9375;DHT22;4727;51.202;6.344;2023-07-13T00:09:24;16.70;99.90
9375;DHT22;4727;51.202;6.344;2023-07-13T00:11:52;16.50;99.90
9375;DHT22;4727;51.202;6.344;2023-07-13T00:14:18;16.40;99.90
9375;DHT22;4727;51.202;6.344;2023-07-13T00:16:43;16.40;99.90
9375;DHT22;4727;51.202;6.344;2023-07-13T00:19:10;16.60;99.90
9375;DHT22;4727;51.202;6.344;2023-07-13T00:21:37;16.40;99.90
9375;DHT22;4727;51.202;6.344;2023-07-13T00:24:03;16.40;99.90
9375;DHT22;4727;51.202;6.344;2023-07-13T00:26:28;16.30;99.90
9375;DHT22;4727;51.202;6.344;2023-07-13T00:39:09;16.20;99.90
9375;DHT22;4727;51.202;6.344;2023-07-13T00:41:35;16.20;99.90
9375;DHT22;4727;51.202;6.344;2023-07-13T00:44:02;16.20;99.90
9375;DHT22;4727;51.202;6.344;2023-07-13T00:46:30;16.10;99.90
9375;DHT22;4727;51.202;6.344;2023-07-13T00:48:59;16.20;99.90
9375;DHT22;4727;51.202;6.344;2023-07-13T00:54:18;16.10;99.90
9375;DHT22;4727;51.202;6.344;2023-07-13T00:56:45;16.00;99.90
9375;DHT22;4727;51.202;6.344;2023-07-13T00:59:12;16.00;99.90
9375;DHT22;4727;51.202;6.344;2023-07-13T01:01:39;16.00;99.90
9375;DHT22;4727;51.202;6.344;2023-07-13T01:04:05;16.00;99.90
9375;DHT22;4727;51.202;6.344;2023-07-13T01:06:35;15.90;99.90
9375;DHT22;4727;51.202;6.344;2023-07-13T01:09:01;16.00;99.90
9375;DHT22;4727;51.202;6.344;2023-07-13T01:11:27;15.90;99.90
9375;DHT22;4727;51.202;6.344;2023-07-13T01:13:53;16.00;99.90
9375;DHT22;4727;51.202;6.344;2023-07-13T01:16:36;15.80;99.90
9375;DHT22;4727;51.202;6.344;2023-07-13T01:21:43;15.70;99.90
9375;DHT22;4727;51.202;6.344;2023-07-13T01:24:09;15.80;99.90
9375;DHT22;4727;51.202;6.344;2023-07-13T01:26:35;15.70;99.90
9375;DHT22;4727;51.202;6.344;2023-07-13T01:29:00;15.70;99.90
9375;DHT22;4727;51.202;6.344;2023-07-13T01:31:27;15.60;99.90
9375;DHT22;4727;51.202;6.344;2023-07-13T01:33:53;15.50;99.90
9375;DHT22;4727;51.202;6.344;2023-07-13T01:36:18;15.60;99.90
9375;DHT22;4727;51.202;6.344;2023-07-13T01:38:46;15.70;99.90
9375;DHT22;4727;51.202;6.344;2023-07-13T01:41:12;15.50;99.90
9375;DHT22;4727;51.202;6.344;2023-07-13T01:43:37;15.70;99.90
9375;DHT22;4727;51.202;6.344;2023-07-13T01:46:03;15.60;99.90
9375;DHT22;4727;51.202;6.344;2023-07-13T01:48:28;15.40;99.90
9375;DHT22;4727;51.202;6.344;2023-07-13T01:50:54;15.50;99.90
9375;DHT22;4727;51.202;6.344;2023-07-13T01:53:19;15.50;99.90
9375;DHT22;4727;51.202;6.344;2023-07-13T01:55:45;15.40;99.90
9375;DHT22;4727;51.202;6.344;2023-07-13T01:58:10;15.40;99.90
9375;DHT22;4727;51.202;6.344;2023-07-13T02:00:36;15.40;99.90
9375;DHT22;4727;51.202;6.344;2023-07-13T02:03:02;15.40;99.90
9375;DHT22;4727;51.202;6.344;2023-07-13T02:05:27;15.40;99.90
9375;DHT22;4727;51.202;6.344;2023-07-13T02:07:53;15.40;99.90
9375;DHT22;4727;51.202;6.344;2023-07-13T02:10:18;15.30;99.90
9375;DHT22;4727;51.202;6.344;2023-07-13T02:12:44;15.30;99.90
9375;DHT22;4727;51.202;6.344;2023-07-13T02:15:10;15.30;99.90
9375;DHT22;4727;51.202;6.344;2023-07-13T02:17:36;15.30;99.90
9375;DHT22;4727;51.202;6.344;2023-07-13T02:20:03;15.30;99.90
9375;DHT22;4727;51.202;6.344;2023-07-13T02:22:30;15.20;99.90
9375;DHT22;4727;51.202;6.344;2023-07-13T02:24:55;15.30;99.90
9375;DHT22;4727;51.202;6.344;2023-07-13T02:27:21;15.10;99.90
9375;DHT22;4727;51.202;6.344;2023-07-13T02:29:47;15.00;99.90
9375;DHT22;4727;51.202;6.344;2023-07-13T02:32:12;15.10;99.90
9375;DHT22;4727;51.202;6.344;2023-07-13T02:34:38;15.20;99.90
9375;DHT22;4727;51.202;6.344;2023-07-13T02:37:04;15.10;99.90
9375;DHT22;4727;51.202;6.344;2023-07-13T02:39:29;15.20;99.90
9375;DHT22;4727;51.202;6.344;2023-07-13T02:41:58;15.20;99.90
9375;DHT22;4727;51.202;6.344;2023-07-13T02:44:24;15.10;99.90
9375;DHT22;4727;51.202;6.344;2023-07-13T02:46:49;15.10;99.90
9375;DHT22;4727;51.202;6.344;2023-07-13T02:49:15;15.10;99.90
9375;DHT22;4727;51.202;6.344;2023-07-13T02:51:40;15.20;99.90
9375;DHT22;4727;51.202;6.344;2023-07-13T02:54:06;14.90;99.90
9375;DHT22;4727;51.202;6.344;2023-07-13T02:56:33;14.80;99.90
9375;DHT22;4727;51.202;6.344;2023-07-13T02:58:59;15.00;99.90
9375;DHT22;4727;51.202;6.344;2023-07-13T03:01:25;15.00;99.90
9375;DHT22;4727;51.202;6.344;2023-07-13T03:03:51;15.10;99.90
9375;DHT22;4727;51.202;6.344;2023-07-13T03:06:17;14.90;99.90
9375;DHT22;4727;51.202;6.344;2023-07-13T03:08:44;14.90;99.90
9375;DHT22;4727;51.202;6.344;2023-07-13T03:11:13;15.00;99.90
9375;DHT22;4727;51.202;6.344;2023-07-13T03:13:39;14.90;99.90
9375;DHT22;4727;51.202;6.344;2023-07-13T03:16:05;14.90;99.90
9375;DHT22;4727;51.202;6.344;2023-07-13T03:18:31;14.90;99.90
9375;DHT22;4727;51.202;6.344;2023-07-13T03:20:57;14.90;99.90
9375;DHT22;4727;51.202;6.344;2023-07-13T03:23:23;14.90;99.90
9375;DHT22;4727;51.202;6.344;2023-07-13T03:25:50;14.80;99.90
9375;DHT22;4727;51.202;6.344;2023-07-13T03:28:16;14.80;99.90
9375;DHT22;4727;51.202;6.344;2023-07-13T03:30:41;14.80;99.90
9375;DHT22;4727;51.202;6.344;2023-07-13T03:33:07;14.80;99.90
9375;DHT22;4727;51.202;6.344;2023-07-13T03:35:34;14.80;99.90
9375;DHT22;4727;51.202;6.344;2023-07-13T03:37:59;14.80;99.90
9375;DHT22;4727;51.202;6.344;2023-07-13T03:40:27;14.90;99.90
9375;DHT22;4727;51.202;6.344;2023-07-13T03:42:52;14.70;99.90
9375;DHT22;4727;51.202;6.344;2023-07-13T03:45:18;14.70;99.90
9375;DHT22;4727;51.202;6.344;2023-07-13T03:47:44;14.70;99.90
9375;DHT22;4727;51.202;6.344;2023-07-13T03:50:10;14.70;99.90
9375;DHT22;4727;51.202;6.344;2023-07-13T03:52:36;14.70;99.90
9375;DHT22;4727;51.202;6.344;2023-07-13T03:55:01;14.60;99.90
9375;DHT22;4727;51.202;6.344;2023-07-13T03:57:27;14.60;99.90
9375;DHT22;4727;51.202;6.344;2023-07-13T03:59:53;14.60;99.90
9375;DHT22;4727;51.202;6.344;2023-07-13T04:02:18;14.80;99.90
9375;DHT22;4727;51.202;6.344;2023-07-13T04:04:44;14.60;99.90
9375;DHT22;4727;51.202;6.344;2023-07-13T04:07:09;14.70;99.90
9375;DHT22;4727;51.202;6.344;2023-07-13T04:09:35;14.50;99.90
9375;DHT22;4727;51.202;6.344;2023-07-13T04:12:01;14.60;99.90
9375;DHT22;4727;51.202;6.344;2023-07-13T04:14:27;14.50;99.90
9375;DHT22;4727;51.202;6.344;2023-07-13T04:16:53;14.60;99.90
9375;DHT22;4727;51.202;6.344;2023-07-13T04:19:20;14.60;99.90
9375;DHT22;4727;51.202;6.344;2023-07-13T04:21:46;14.50;99.90
9375;DHT22;4727;51.202;6.344;2023-07-13T04:24:11;14.60;99.90
9375;DHT22;4727;51.202;6.344;2023-07-13T04:26:37;14.70;99.90
9375;DHT22;4727;51.202;6.344;2023-07-13T04:29:04;14.60;99.90
9375;DHT22;4727;51.202;6.344;2023-07-13T04:31:31;14.80;99.90
9375;DHT22;4727;51.202;6.344;2023-07-13T04:33:57;14.70;99.90
9375;DHT22;4727;51.202;6.344;2023-07-13T04:36:23;14.80;99.90
9375;DHT22;4727;51.202;6.344;2023-07-13T04:38:51;14.70;99.90
9375;DHT22;4727;51.202;6.344;2023-07-13T04:41:16;14.70;99.90
9375;DHT22;4727;51.202;6.344;2023-07-13T04:43:42;14.70;99.90
9375;DHT22;4727;51.202;6.344;2023-07-13T04:46:11;14.80;99.90
9375;DHT22;4727;51.202;6.344;2023-07-13T04:48:37;14.80;99.90
9375;DHT22;4727;51.202;6.344;2023-07-13T04:51:03;14.80;99.90
9375;DHT22;4727;51.202;6.344;2023-07-13T04:53:30;14.90;99.90
9375;DHT22;4727;51.202;6.344;2023-07-13T04:55:56;15.00;99.90
9375;DHT22;4727;51.202;6.344;2023-07-13T04:58:23;14.90;99.90
9375;DHT22;4727;51.202;6.344;2023-07-13T05:00:49;15.00;99.90
9375;DHT22;4727;51.202;6.344;2023-07-13T05:03:15;15.00;99.90
9375;DHT22;4727;51.202;6.344;2023-07-13T05:05:40;15.10;99.90
9375;DHT22;4727;51.202;6.344;2023-07-13T05:08:06;15.10;99.90
9375;DHT22;4727;51.202;6.344;2023-07-13T05:10:34;15.10;99.90
9375;DHT22;4727;51.202;6.344;2023-07-13T05:13:00;15.20;99.90
9375;DHT22;4727;51.202;6.344;2023-07-13T05:15:26;15.20;99.90
9375;DHT22;4727;51.202;6.344;2023-07-13T05:17:52;15.20;99.90
9375;DHT22;4727;51.202;6.344;2023-07-13T05:20:19;15.20;99.90
9375;DHT22;4727;51.202;6.344;2023-07-13T05:22:44;15.40;99.90
9375;DHT22;4727;51.202;6.344;2023-07-13T05:25:12;15.20;99.90
9375;DHT22;4727;51.202;6.344;2023-07-13T05:27:39;15.30;99.90
9375;DHT22;4727;51.202;6.344;2023-07-13T05:30:05;15.40;99.90
9375;DHT22;4727;51.202;6.344;2023-07-13T05:32:31;15.40;99.90
9375;DHT22;4727;51.202;6.344;2023-07-13T05:34:56;15.50;99.90
9375;DHT22;4727;51.202;6.344;2023-07-13T05:37:22;15.50;99.90
9375;DHT22;4727;51.202;6.344;2023-07-13T05:39:48;15.50;99.90
9375;DHT22;4727;51.202;6.344;2023-07-13T05:42:13;15.60;99.90
9375;DHT22;4727;51.202;6.344;2023-07-13T05:44:39;15.60;99.90
9375;DHT22;4727;51.202;6.344;2023-07-13T05:47:05;15.60;99.90
9375;DHT22;4727;51.202;6.344;2023-07-13T05:49:30;15.70;99.90
9375;DHT22;4727;51.202;6.344;2023-07-13T05:51:56;15.70;99.90
9375;DHT22;4727;51.202;6.344;2023-07-13T05:54:22;15.70;99.90
9375;DHT22;4727;51.202;6.344;2023-07-13T05:56:48;15.80;99.90
9375;DHT22;4727;51.202;6.344;2023-07-13T05:59:13;15.80;99.90
9375;DHT22;4727;51.202;6.344;2023-07-13T06:01:39;15.80;99.90
9375;DHT22;4727;51.202;6.344;2023-07-13T06:04:04;15.90;99.90
9375;DHT22;4727;51.202;6.344;2023-07-13T06:06:30;16.00;99.90
9375;DHT22;4727;51.202;6.344;2023-07-13T06:08:56;16.20;99.90
9375;DHT22;4727;51.202;6.344;2023-07-13T06:11:24;16.20;99.90
9375;DHT22;4727;51.202;6.344;2023-07-13T06:13:50;16.30;99.90
9375;DHT22;4727;51.202;6.344;2023-07-13T06:16:17;16.10;99.90
9375;DHT22;4727;51.202;6.344;2023-07-13T06:18:43;16.20;99.90
9375;DHT22;4727;51.202;6.344;2023-07-13T06:21:18;16.30;99.90
9375;DHT22;4727;51.202;6.344;2023-07-13T06:23:44;16.40;99.90
9375;DHT22;4727;51.202;6.344;2023-07-13T06:26:11;16.40;99.90
9375;DHT22;4727;51.202;6.344;2023-07-13T06:28:37;16.40;99.90
9375;DHT22;4727;51.202;6.344;2023-07-13T06:31:08;16.30;99.90
9375;DHT22;4727;51.202;6.344;2023-07-13T06:33:34;16.30;99.90
9375;DHT22;4727;51.202;6.344;2023-07-13T06:36:00;16.30;99.90
9375;DHT22;4727;51.202;6.344;2023-07-13T06:38:26;16.30;99.90
9375;DHT22;4727;51.202;6.344;2023-07-13T06:40:51;16.30;99.90
9375;DHT22;4727;51.202;6.344;2023-07-13T06:43:17;16.40;99.90
9375;DHT22;4727;51.202;6.344;2023-07-13T06:45:45;16.50;99.90
9375;DHT22;4727;51.202;6.344;2023-07-13T06:48:13;16.60;99.90
9375;DHT22;4727;51.202;6.344;2023-07-13T06:50:39;16.50;99.90
9375;DHT22;4727;51.202;6.344;2023-07-13T06:53:05;16.60;99.90
9375;DHT22;4727;51.202;6.344;2023-07-13T06:55:30;16.50;99.90
9375;DHT22;4727;51.202;6.344;2023-07-13T06:57:56;16.60;99.90
9375;DHT22;4727;51.202;6.344;2023-07-13T07:00:22;16.60;99.90
9375;DHT22;4727;51.202;6.344;2023-07-13T07:02:48;16.70;99.90
9375;DHT22;4727;51.202;6.344;2023-07-13T07:05:14;16.80;99.90
9375;DHT22;4727;51.202;6.344;2023-07-13T07:07:39;16.70;99.90
9375;DHT22;4727;51.202;6.344;2023-07-13T07:10:05;16.80;99.90
9375;DHT22;4727;51.202;6.344;2023-07-13T07:12:31;16.70;99.90
9375;DHT22;4727;51.202;6.344;2023-07-13T07:14:58;16.60;99.90
9375;DHT22;4727;51.202;6.344;2023-07-13T07:17:23;16.60;99.90
9375;DHT22;4727;51.202;6.344;2023-07-13T07:19:50;16.60;99.90
9375;DHT22;4727;51.202;6.344;2023-07-13T07:22:16;16.60;99.90
9375;DHT22;4727;51.202;6.344;2023-07-13T07:24:41;16.80;99.90
9375;DHT22;4727;51.202;6.344;2023-07-13T07:27:07;16.90;99.90
9375;DHT22;4727;51.202;6.344;2023-07-13T07:29:33;17.00;99.90
9375;DHT22;4727;51.202;6.344;2023-07-13T07:31:59;17.20;99.90
9375;DHT22;4727;51.202;6.344;2023-07-13T07:34:25;17.30;99.90
9375;DHT22;4727;51.202;6.344;2023-07-13T07:36:51;17.40;99.90
9375;DHT22;4727;51.202;6.344;2023-07-13T07:39:16;17.30;99.90
9375;DHT22;4727;51.202;6.344;2023-07-13T07:41:42;17.20;99.90
9375;DHT22;4727;51.202;6.344;2023-07-13T07:44:08;17.20;99.90
9375;DHT22;4727;51.202;6.344;2023-07-13T07:46:35;17.30;99.90
9375;DHT22;4727;51.202;6.344;2023-07-13T07:49:01;17.30;99.90
9375;DHT22;4727;51.202;6.344;2023-07-13T07:51:26;17.40;99.90
9375;DHT22;4727;51.202;6.344;2023-07-13T07:53:52;17.40;99.90
9375;DHT22;4727;51.202;6.344;2023-07-13T07:56:17;17.40;99.90
9375;DHT22;4727;51.202;6.344;2023-07-13T07:58:43;17.50;99.90
9375;DHT22;4727;51.202;6.344;2023-07-13T08:01:09;17.50;99.90
9375;DHT22;4727;51.202;6.344;2023-07-13T08:03:35;17.60;99.90
9375;DHT22;4727;51.202;6.344;2023-07-13T08:06:01;17.50;99.90
9375;DHT22;4727;51.202;6.344;2023-07-13T08:08:27;17.60;99.90
9375;DHT22;4727;51.202;6.344;2023-07-13T08:10:53;17.50;99.90
9375;DHT22;4727;51.202;6.344;2023-07-13T08:13:19;17.50;99.90
9375;DHT22;4727;51.202;6.344;2023-07-13T08:15:46;17.70;99.90
9375;DHT22;4727;51.202;6.344;2023-07-13T08:18:12;17.70;99.90
9375;DHT22;4727;51.202;6.344;2023-07-13T08:20:41;17.70;99.90
9375;DHT22;4727;51.202;6.344;2023-07-13T08:23:09;17.70;99.90
9375;DHT22;4727;51.202;6.344;2023-07-13T08:25:35;18.00;99.90
9375;DHT22;4727;51.202;6.344;2023-07-13T08:28:02;17.90;99.90
9375;DHT22;4727;51.202;6.344;2023-07-13T08:30:28;17.90;99.90
9375;DHT22;4727;51.202;6.344;2023-07-13T08:32:54;18.00;99.90
9375;DHT22;4727;51.202;6.344;2023-07-13T08:35:19;17.90;99.90
9375;DHT22;4727;51.202;6.344;2023-07-13T08:37:45;18.10;99.90
9375;DHT22;4727;51.202;6.344;2023-07-13T08:40:11;18.10;99.90
9375;DHT22;4727;51.202;6.344;2023-07-13T08:42:42;18.20;99.90
9375;DHT22;4727;51.202;6.344;2023-07-13T08:45:30;18.10;99.90
9375;DHT22;4727;51.202;6.344;2023-07-13T08:48:05;18.10;99.90
9375;DHT22;4727;51.202;6.344;2023-07-13T08:50:58;18.10;99.90
9375;DHT22;4727;51.202;6.344;2023-07-13T08:53:33;18.10;99.90
9375;DHT22;4727;51.202;6.344;2023-07-13T08:56:00;18.10;99.90
9375;DHT22;4727;51.202;6.344;2023-07-13T08:58:27;18.30;99.90
9375;DHT22;4727;51.202;6.344;2023-07-13T09:03:46;18.60;99.90
9375;DHT22;4727;51.202;6.344;2023-07-13T09:06:14;18.50;99.90
9375;DHT22;4727;51.202;6.344;2023-07-13T09:08:59;18.50;99.90
9375;DHT22;4727;51.202;6.344;2023-07-13T09:14:52;18.30;99.90
9375;DHT22;4727;51.202;6.344;2023-07-13T09:17:24;18.50;99.90
9375;DHT22;4727;51.202;6.344;2023-07-13T09:20:05;18.50;99.90
9375;DHT22;4727;51.202;6.344;2023-07-13T09:22:34;18.60;99.90
9375;DHT22;4727;51.202;6.344;2023-07-13T09:27:51;18.60;99.90
9375;DHT22;4727;51.202;6.344;2023-07-13T09:30:32;18.80;99.90
9375;DHT22;4727;51.202;6.344;2023-07-13T09:32:58;18.80;99.90
9375;DHT22;4727;51.202;6.344;2023-07-13T09:35:29;19.00;99.90
9375;DHT22;4727;51.202;6.344;2023-07-13T09:40:49;19.00;99.90
9375;DHT22;4727;51.202;6.344;2023-07-13T09:43:18;19.00;99.90
9375;DHT22;4727;51.202;6.344;2023-07-13T09:45:46;19.20;99.90
9375;DHT22;4727;51.202;6.344;2023-07-13T09:48:14;19.30;99.90
9375;DHT22;4727;51.202;6.344;2023-07-13T09:50:40;19.20;99.90
9375;DHT22;4727;51.202;6.344;2023-07-13T09:53:17;19.40;99.90
9375;DHT22;4727;51.202;6.344;2023-07-13T09:55:48;19.70;99.90
9375;DHT22;4727;51.202;6.344;2023-07-13T09:58:16;19.40;99.90
9375;DHT22;4727;51.202;6.344;2023-07-13T10:00:44;19.40;99.90
9375;DHT22;4727;51.202;6.344;2023-07-13T10:03:22;19.80;99.90
9375;DHT22;4727;51.202;6.344;2023-07-13T10:05:50;19.90;99.90
9375;DHT22;4727;51.202;6.344;2023-07-13T10:10:51;19.70;99.90
9375;DHT22;4727;51.202;6.344;2023-07-13T10:13:39;19.50;99.90
9375;DHT22;4727;51.202;6.344;2023-07-13T10:16:06;19.80;99.90
9375;DHT22;4727;51.202;6.344;2023-07-13T10:18:57;20.00;99.90
9375;DHT22;4727;51.202;6.344;2023-07-13T10:21:28;20.00;99.90
9375;DHT22;4727;51.202;6.344;2023-07-13T10:24:19;20.20;99.90
9375;DHT22;4727;51.202;6.344;2023-07-13T10:29:37;20.20;99.90
9375;DHT22;4727;51.202;6.344;2023-07-13T10:32:09;20.20;99.90
9375;DHT22;4727;51.202;6.344;2023-07-13T10:34:36;20.10;99.90
9375;DHT22;4727;51.202;6.344;2023-07-13T10:37:02;20.20;99.90
9375;DHT22;4727;51.202;6.344;2023-07-13T10:39:30;20.40;99.90
9375;DHT22;4727;51.202;6.344;2023-07-13T10:42:03;20.70;99.90
9375;DHT22;4727;51.202;6.344;2023-07-13T10:44:32;20.70;99.90
9375;DHT22;4727;51.202;6.344;2023-07-13T10:47:07;20.70;99.90
9375;DHT22;4727;51.202;6.344;2023-07-13T10:49:34;21.00;99.90
9375;DHT22;4727;51.202;6.344;2023-07-13T10:52:02;20.90;99.90
9375;DHT22;4727;51.202;6.344;2023-07-13T10:54:34;20.90;99.90
9375;DHT22;4727;51.202;6.344;2023-07-13T10:59:38;20.90;99.90
9375;DHT22;4727;51.202;6.344;2023-07-13T11:02:10;21.10;99.90
9375;DHT22;4727;51.202;6.344;2023-07-13T11:04:46;21.10;99.90
9375;DHT22;4727;51.202;6.344;2023-07-13T11:07:30;21.10;99.90
9375;DHT22;4727;51.202;6.344;2023-07-13T11:10:04;21.20;99.90
9375;DHT22;4727;51.202;6.344;2023-07-13T11:12:51;21.20;99.90
9375;DHT22;4727;51.202;6.344;2023-07-13T11:15:31;21.40;99.90
9375;DHT22;4727;51.202;6.344;2023-07-13T11:18:02;21.50;99.90
9375;DHT22;4727;51.202;6.344;2023-07-13T11:20:38;21.50;99.90
9375;DHT22;4727;51.202;6.344;2023-07-13T11:23:17;21.70;99.90
9375;DHT22;4727;51.202;6.344;2023-07-13T11:25:44;21.80;99.90
9375;DHT22;4727;51.202;6.344;2023-07-13T11:30:42;21.60;99.90
9375;DHT22;4727;51.202;6.344;2023-07-13T11:36:13;21.80;99.90
9375;DHT22;4727;51.202;6.344;2023-07-13T11:38:42;22.20;99.90
9375;DHT22;4727;51.202;6.344;2023-07-13T11:41:17;22.40;99.90
9375;DHT22;4727;51.202;6.344;2023-07-13T11:43:43;22.10;99.90
9375;DHT22;4727;51.202;6.344;2023-07-13T11:46:26;22.10;99.90
9375;DHT22;4727;51.202;6.344;2023-07-13T11:48:53;22.20;99.90
9375;DHT22;4727;51.202;6.344;2023-07-13T11:51:23;22.40;99.90
9375;DHT22;4727;51.202;6.344;2023-07-13T11:53:55;22.50;99.90
9375;DHT22;4727;51.202;6.344;2023-07-13T11:56:23;22.40;99.90
9375;DHT22;4727;51.202;6.344;2023-07-13T11:58:51;22.50;99.90
9375;DHT22;4727;51.202;6.344;2023-07-13T12:01:21;22.20;99.90
9375;DHT22;4727;51.202;6.344;2023-07-13T12:03:48;22.20;99.90
9375;DHT22;4727;51.202;6.344;2023-07-13T12:06:26;22.10;99.90
9375;DHT22;4727;51.202;6.344;2023-07-13T12:08:59;22.40;99.90
9375;DHT22;4727;51.202;6.344;2023-07-13T12:11:26;22.40;99.90
9375;DHT22;4727;51.202;6.344;2023-07-13T12:13:52;22.30;99.90
9375;DHT22;4727;51.202;6.344;2023-07-13T12:16:27;22.40;99.90
9375;DHT22;4727;51.202;6.344;2023-07-13T12:18:55;22.60;99.90
9375;DHT22;4727;51.202;6.344;2023-07-13T12:21:28;22.80;99.90
9375;DHT22;4727;51.202;6.344;2023-07-13T12:23:55;22.30;99.90
9375;DHT22;4727;51.202;6.344;2023-07-13T12:26:21;22.20;99.90
9375;DHT22;4727;51.202;6.344;2023-07-13T12:28:49;22.10;99.90
9375;DHT22;4727;51.202;6.344;2023-07-13T12:31:34;22.20;99.90
9375;DHT22;4727;51.202;6.344;2023-07-13T12:34:14;22.30;99.90
9375;DHT22;4727;51.202;6.344;2023-07-13T12:36:54;22.60;99.90
9375;DHT22;4727;51.202;6.344;2023-07-13T12:39:24;22.70;99.90
9375;DHT22;4727;51.202;6.344;2023-07-13T12:41:52;22.50;99.90
9375;DHT22;4727;51.202;6.344;2023-07-13T12:47:05;22.20;99.90
9375;DHT22;4727;51.202;6.344;2023-07-13T12:49:41;21.80;99.90
9375;DHT22;4727;51.202;6.344;2023-07-13T12:52:17;21.80;99.90
9375;DHT22;4727;51.202;6.344;2023-07-13T12:54:53;21.80;99.90
9375;DHT22;4727;51.202;6.344;2023-07-13T12:57:22;21.90;99.90
9375;DHT22;4727;51.202;6.344;2023-07-13T12:59:55;22.00;99.90
9375;DHT22;4727;51.202;6.344;2023-07-13T13:02:29;21.80;99.90
9375;DHT22;4727;51.202;6.344;2023-07-13T13:04:56;21.70;99.90
9375;DHT22;4727;51.202;6.344;2023-07-13T13:07:23;21.60;99.90
9375;DHT22;4727;51.202;6.344;2023-07-13T13:09:49;21.40;99.90
9375;DHT22;4727;51.202;6.344;2023-07-13T13:12:15;21.40;99.90
9375;DHT22;4727;51.202;6.344;2023-07-13T13:14:42;21.70;99.90
9375;DHT22;4727;51.202;6.344;2023-07-13T13:17:21;21.90;99.90
9375;DHT22;4727;51.202;6.344;2023-07-13T13:19:49;22.20;99.90
9375;DHT22;4727;51.202;6.344;2023-07-13T13:22:15;22.40;99.90
9375;DHT22;4727;51.202;6.344;2023-07-13T13:24:41;22.30;99.90
9375;DHT22;4727;51.202;6.344;2023-07-13T13:27:18;22.40;99.90
9375;DHT22;4727;51.202;6.344;2023-07-13T13:29:45;22.50;99.90
9375;DHT22;4727;51.202;6.344;2023-07-13T13:32:14;22.50;99.90
9375;DHT22;4727;51.202;6.344;2023-07-13T13:34:40;22.70;99.90
9375;DHT22;4727;51.202;6.344;2023-07-13T13:37:22;22.50;99.90
9375;DHT22;4727;51.202;6.344;2023-07-13T13:39:48;22.40;99.90
9375;DHT22;4727;51.202;6.344;2023-07-13T13:42:14;22.20;99.90
9375;DHT22;4727;51.202;6.344;2023-07-13T13:44:40;22.10;99.90
9375;DHT22;4727;51.202;6.344;2023-07-13T13:49:52;22.10;99.90
9375;DHT22;4727;51.202;6.344;2023-07-13T13:52:18;22.10;99.90
9375;DHT22;4727;51.202;6.344;2023-07-13T13:54:43;22.10;99.90
9375;DHT22;4727;51.202;6.344;2023-07-13T13:57:10;22.10;99.90
9375;DHT22;4727;51.202;6.344;2023-07-13T13:59:38;22.00;99.90
9375;DHT22;4727;51.202;6.344;2023-07-13T14:02:21;21.90;99.90
9375;DHT22;4727;51.202;6.344;2023-07-13T14:04:53;22.00;99.90
9375;DHT22;4727;51.202;6.344;2023-07-13T14:07:19;21.90;99.90
9375;DHT22;4727;51.202;6.344;2023-07-13T14:09:47;21.70;99.90
9375;DHT22;4727;51.202;6.344;2023-07-13T14:12:13;21.50;99.90
9375;DHT22;4727;51.202;6.344;2023-07-13T14:14:39;21.50;99.90
9375;DHT22;4727;51.202;6.344;2023-07-13T14:17:19;21.30;99.90
9375;DHT22;4727;51.202;6.344;2023-07-13T14:19:48;21.20;99.90
9375;DHT22;4727;51.202;6.344;2023-07-13T14:22:19;21.30;99.90
9375;DHT22;4727;51.202;6.344;2023-07-13T14:24:46;21.20;99.90
9375;DHT22;4727;51.202;6.344;2023-07-13T14:27:12;21.20;99.90
9375;DHT22;4727;51.202;6.344;2023-07-13T14:29:38;21.20;99.90
9375;DHT22;4727;51.202;6.344;2023-07-13T14:32:04;21.30;99.90
9375;DHT22;4727;51.202;6.344;2023-07-13T14:34:31;21.30;99.90
9375;DHT22;4727;51.202;6.344;2023-07-13T14:36:57;21.30;99.90
9375;DHT22;4727;51.202;6.344;2023-07-13T14:39:24;21.40;99.90
9375;DHT22;4727;51.202;6.344;2023-07-13T14:41:53;21.50;99.90
9375;DHT22;4727;51.202;6.344;2023-07-13T14:44:23;21.40;99.90
9375;DHT22;4727;51.202;6.344;2023-07-13T14:46:49;21.50;99.90
9375;DHT22;4727;51.202;6.344;2023-07-13T14:49:30;21.40;99.90
9375;DHT22;4727;51.202;6.344;2023-07-13T14:52:00;21.30;99.90
9375;DHT22;4727;51.202;6.344;2023-07-13T14:54:27;21.40;99.90
9375;DHT22;4727;51.202;6.344;2023-07-13T14:56:53;21.30;99.90
9375;DHT22;4727;51.202;6.344;2023-07-13T14:59:18;21.20;99.90
9375;DHT22;4727;51.202;6.344;2023-07-13T15:01:45;21.10;99.90
9375;DHT22;4727;51.202;6.344;2023-07-13T15:04:11;21.20;99.90
9375;DHT22;4727;51.202;6.344;2023-07-13T15:07:01;20.90;99.90
9375;DHT22;4727;51.202;6.344;2023-07-13T15:09:28;20.50;99.90
9375;DHT22;4727;51.202;6.344;2023-07-13T15:11:58;20.30;99.90
9375;DHT22;4727;51.202;6.344;2023-07-13T15:14:24;20.30;99.90
9375;DHT22;4727;51.202;6.344;2023-07-13T15:16:52;20.30;99.90
9375;DHT22;4727;51.202;6.344;2023-07-13T15:19:19;20.10;99.90
9375;DHT22;4727;51.202;6.344;2023-07-13T15:21:46;20.20;99.90
9375;DHT22;4727;51.202;6.344;2023-07-13T15:24:12;20.00;99.90
9375;DHT22;4727;51.202;6.344;2023-07-13T15:26:38;20.00;99.90
9375;DHT22;4727;51.202;6.344;2023-07-13T15:29:04;19.80;99.90
9375;DHT22;4727;51.202;6.344;2023-07-13T15:31:30;19.90;99.90
9375;DHT22;4727;51.202;6.344;2023-07-13T15:33:58;19.80;99.90
9375;DHT22;4727;51.202;6.344;2023-07-13T15:36:25;19.90;99.90
9375;DHT22;4727;51.202;6.344;2023-07-13T15:38:54;19.90;99.90
9375;DHT22;4727;51.202;6.344;2023-07-13T15:41:22;19.80;99.90
9375;DHT22;4727;51.202;6.344;2023-07-13T15:43:50;19.80;99.90
9375;DHT22;4727;51.202;6.344;2023-07-13T15:46:21;19.80;99.90
9375;DHT22;4727;51.202;6.344;2023-07-13T15:48:48;19.80;99.90
9375;DHT22;4727;51.202;6.344;2023-07-13T15:51:26;19.90;99.90
9375;DHT22;4727;51.202;6.344;2023-07-13T15:53:58;19.80;99.90
9375;DHT22;4727;51.202;6.344;2023-07-13T15:56:27;19.90;99.90
9375;DHT22;4727;51.202;6.344;2023-07-13T15:58:54;20.00;99.90
9375;DHT22;4727;51.202;6.344;2023-07-13T16:01:21;19.90;99.90
9375;DHT22;4727;51.202;6.344;2023-07-13T16:03:47;20.00;99.90
9375;DHT22;4727;51.202;6.344;2023-07-13T16:06:19;20.10;99.90
9375;DHT22;4727;51.202;6.344;2023-07-13T16:08:52;20.00;99.90
9375;DHT22;4727;51.202;6.344;2023-07-13T16:11:22;20.00;99.90
9375;DHT22;4727;51.202;6.344;2023-07-13T16:13:48;20.00;99.90
9375;DHT22;4727;51.202;6.344;2023-07-13T16:16:19;20.20;99.90
9375;DHT22;4727;51.202;6.344;2023-07-13T16:18:44;20.10;99.90
9375;DHT22;4727;51.202;6.344;2023-07-13T16:21:12;20.20;99.90
9375;DHT22;4727;51.202;6.344;2023-07-13T16:23:38;20.20;99.90
9375;DHT22;4727;51.202;6.344;2023-07-13T16:26:19;20.20;99.90
9375;DHT22;4727;51.202;6.344;2023-07-13T16:28:47;20.30;99.90
9375;DHT22;4727;51.202;6.344;2023-07-13T16:31:13;20.60;99.90
9375;DHT22;4727;51.202;6.344;2023-07-13T16:33:39;20.50;99.90
9375;DHT22;4727;51.202;6.344;2023-07-13T16:36:10;20.70;99.90
9375;DHT22;4727;51.202;6.344;2023-07-13T16:38:36;20.80;99.90
9375;DHT22;4727;51.202;6.344;2023-07-13T16:41:03;21.00;99.90
9375;DHT22;4727;51.202;6.344;2023-07-13T16:43:30;21.30;99.90
9375;DHT22;4727;51.202;6.344;2023-07-13T16:46:00;21.10;99.90
9375;DHT22;4727;51.202;6.344;2023-07-13T16:48:28;21.30;99.90
9375;DHT22;4727;51.202;6.344;2023-07-13T16:50:57;21.30;99.90
9375;DHT22;4727;51.202;6.344;2023-07-13T16:53:25;21.30;99.90
9375;DHT22;4727;51.202;6.344;2023-07-13T16:55:52;21.20;99.90